Weather reports worldwide

Advertisment
Siracusa, Italy (16464): temperature & dewpoint: 11.08.2017 09:00:00 - 17.08.2017 09:00:00 (CEST)Siracusa, Italy (16464): wind speed: 11.08.2017 09:00:00 - 17.08.2017 09:00:00 (CEST)Siracusa, Italy (16464): wind direction: 11.08.2017 09:00:00 - 17.08.2017 09:00:00 (CEST)Siracusa, Italy (16464): reduced air pressure: 11.08.2017 09:00:00 - 17.08.2017 09:00:00 (CEST)Siracusa, Italy (16464): precipitation: 11.08.2017 09:00:00 - 17.08.2017 09:00:00 (CEST)
Date & Time tt [°C] td [°C] ff [km/h] ff [kn] dd ppp [hPa] rr [mm]
17.08.2017 09:00:00 27,9 17,7 4 2 WNW 1015,7 -
17.08.2017 08:00:00 24,4 15,8 2 1 SSW 1015,3 0,0
17.08.2017 07:00:00 22,8 16,0 0 0 N 1014,9 -
17.08.2017 06:00:00 22,3 15,6 5 3 WNW 1014,9 -
17.08.2017 05:00:00 22,8 16,3 2 1 WNW 1014,9 -
17.08.2017 04:00:00 24,2 18,5 2 1 WNW 1014,7 -
17.08.2017 03:00:00 24,6 18,7 4 2 NW 1015,0 -
17.08.2017 02:00:00 26,2 20,7 5 3 ENE 1015,5 0,0
17.08.2017 01:00:00 26,7 21,4 8 4 N 1015,8 -
17.08.2017 00:00:00 27,1 21,3 9 5 N 1016,1 -
16.08.2017 23:00:00 27,7 20,7 9 5 NNE 1016,3 -
16.08.2017 22:00:00 27,5 16,4 2 1 NW 1016,3 -
16.08.2017 21:00:00 28,4 16,9 2 1 NNW 1015,7 -
16.08.2017 20:00:00 28,9 18,3 5 3 SSE 1015,3 0,0
16.08.2017 19:00:00 30,0 17,8 9 5 S 1015,1 -
16.08.2017 18:00:00 31,2 17,1 5 3 SSE 1015,3 -
16.08.2017 17:00:00 30,8 20,1 5 3 ESE 1015,6 -
16.08.2017 16:00:00 30,0 16,4 8 4 E 1015,7 -
16.08.2017 15:00:00 29,4 19,1 8 4 E 1016,0 -
16.08.2017 14:00:00 29,4 16,9 13 7 ENE 1016,6 0,0
16.08.2017 13:00:00 29,6 17,4 13 7 NE 1016,9 -
16.08.2017 12:00:00 30,1 14,6 13 7 NNE 1017,1 -
16.08.2017 11:00:00 29,4 16,2 13 7 N 1017,4 -
16.08.2017 10:00:00 29,0 16,2 13 7 NNE 1017,4 -
16.08.2017 09:00:00 28,0 18,1 11 6 NNE 1017,1 -
16.08.2017 08:00:00 24,0 16,4 2 1 WNW 1017,3 0,0
16.08.2017 07:00:00 21,6 14,2 5 3 NW 1016,9 -
16.08.2017 06:00:00 22,3 15,1 4 2 WNW 1016,4 -
16.08.2017 05:00:00 22,9 15,2 4 2 NW 1016,4 -
16.08.2017 04:00:00 24,0 15,9 4 2 WNW 1016,6 -
16.08.2017 03:00:00 25,5 17,9 5 3 NW 1017,0 -
16.08.2017 02:00:00 26,5 19,1 11 6 N 1017,3 0,0
16.08.2017 01:00:00 27,0 19,3 15 8 N 1017,8 -
16.08.2017 00:00:00 27,4 17,5 9 5 NNW 1018,0 -
15.08.2017 23:00:00 27,2 14,5 5 3 W 1018,3 -
15.08.2017 22:00:00 28,8 16,0 4 2 NNW 1018,3 -
15.08.2017 21:00:00 28,7 19,0 4 2 NNW 1018,0 -
15.08.2017 20:00:00 29,6 18,7 5 3 S 1017,6 0,0
15.08.2017 19:00:00 30,6 18,6 9 5 S 1017,7 -
15.08.2017 18:00:00 31,1 18,1 11 6 SSE 1017,7 -
15.08.2017 17:00:00 30,4 19,7 13 7 S 1018,1 -
15.08.2017 16:00:00 30,0 20,8 15 8 S 1018,6 -
15.08.2017 15:00:00 29,9 18,9 15 8 S 1018,8 -
15.08.2017 14:00:00 29,4 20,5 13 7 SSE 1019,2 0,0
15.08.2017 13:00:00 28,0 19,7 9 5 E 1019,5 -
15.08.2017 12:00:00 27,8 20,1 9 5 E 1019,7 -
15.08.2017 11:00:00 27,7 20,0 11 6 E 1019,4 -
15.08.2017 10:00:00 27,6 18,8 9 5 NNE 1019,5 -
15.08.2017 09:00:00 26,7 19,5 11 6 N 1019,2 -
15.08.2017 08:00:00 23,1 16,8 4 2 NW 1019,4 0,0
15.08.2017 07:00:00 20,8 15,0 4 2 WNW 1019,1 -
15.08.2017 06:00:00 21,1 14,9 4 2 WNW 1018,8 -
15.08.2017 05:00:00 21,5 15,0 4 2 NW 1018,9 -
15.08.2017 04:00:00 21,9 15,2 4 2 NW 1019,0 -
15.08.2017 03:00:00 22,4 15,2 4 2 WNW 1019,1 -
15.08.2017 02:00:00 23,3 15,3 4 2 WNW 1019,4 0,0
15.08.2017 01:00:00 24,3 15,7 2 1 NNW 1019,5 -
15.08.2017 00:00:00 26,9 18,4 5 3 NNE 1019,4 -
14.08.2017 23:00:00 27,1 17,2 5 3 N 1019,3 -
14.08.2017 22:00:00 27,4 16,0 2 1 NNW 1019,2 -
14.08.2017 21:00:00 27,8 17,3 2 1 S 1018,6 -
14.08.2017 20:00:00 28,2 16,1 5 3 SSE 1018,0 0,0
14.08.2017 19:00:00 28,4 17,8 8 4 S 1017,9 -
14.08.2017 18:00:00 28,7 18,7 13 7 S 1017,7 -
14.08.2017 17:00:00 28,9 19,2 15 8 S 1017,7 -
14.08.2017 16:00:00 29,3 16,8 9 5 S 1017,9 -
14.08.2017 15:00:00 28,8 19,7 8 4 ESE 1018,2 -
14.08.2017 14:00:00 28,2 18,8 9 5 E 1018,4 0,0
14.08.2017 13:00:00 27,7 17,8 13 7 ENE 1018,7 -
14.08.2017 12:00:00 28,0 17,8 11 6 ENE 1018,9 -
14.08.2017 11:00:00 27,7 17,2 11 6 NE 1018,6 -
14.08.2017 10:00:00 26,9 17,3 15 8 N 1018,2 -
14.08.2017 09:00:00 26,0 17,0 13 7 N 1017,9 -
14.08.2017 08:00:00 23,7 18,1 4 2 NW 1017,8 0,0
14.08.2017 07:00:00 20,9 15,4 5 3 WNW 1017,6 -
14.08.2017 06:00:00 21,8 15,6 4 2 NW 1017,1 -
14.08.2017 05:00:00 23,0 15,7 4 2 W 1016,8 -
14.08.2017 04:00:00 24,7 17,6 5 3 NNW 1016,5 -
14.08.2017 03:00:00 25,5 17,1 9 5 N 1016,9 -
14.08.2017 02:00:00 25,7 17,3 13 7 N 1016,9 0,0
14.08.2017 01:00:00 25,7 17,5 9 5 NNE 1017,3 -
14.08.2017 00:00:00 26,0 17,6 11 6 NNE 1017,4 -
13.08.2017 23:00:00 26,1 17,7 13 7 NNE 1017,4 -
13.08.2017 22:00:00 26,2 18,0 5 3 NE 1017,3 -
13.08.2017 21:00:00 26,7 16,8 9 5 NE 1016,5 -
13.08.2017 20:00:00 27,1 17,2 11 6 NE 1015,8 0,0
13.08.2017 19:00:00 27,7 17,8 13 7 ENE 1015,4 -
13.08.2017 18:00:00 29,1 17,3 13 7 SE 1015,0 -
13.08.2017 17:00:00 28,7 17,2 26 14 S 1014,9 -
13.08.2017 16:00:00 28,9 18,0 28 15 S 1014,8 -
13.08.2017 15:00:00 28,1 18,2 29 16 S 1015,1 -
13.08.2017 14:00:00 27,9 18,0 26 14 S 1015,6 0,0
13.08.2017 13:00:00 28,1 16,3 18 10 S 1015,5 -
13.08.2017 12:00:00 28,0 16,9 15 8 S 1015,7 -
13.08.2017 11:00:00 28,0 14,6 9 5 ESE 1015,4 -
13.08.2017 10:00:00 27,3 13,9 8 4 S 1015,4 -
13.08.2017 09:00:00 26,0 14,1 4 2 WSW 1014,9 -
13.08.2017 08:00:00 23,2 13,6 4 2 WNW 1014,9 0,0
13.08.2017 07:00:00 21,7 12,2 2 1 NNW 1014,6 -
13.08.2017 06:00:00 22,5 12,4 0 0 N 1014,2 -
13.08.2017 05:00:00 23,6 12,5 4 2 WNW 1014,2 -
13.08.2017 04:00:00 24,9 13,7 15 8 N 1014,2 -
13.08.2017 03:00:00 25,0 14,1 11 6 NNW 1014,4 -
13.08.2017 02:00:00 24,3 11,2 5 3 NW 1014,6 0,0
13.08.2017 01:00:00 25,3 11,8 11 6 NW 1014,6 -
13.08.2017 00:00:00 26,3 12,3 15 8 NW 1015,0 -
12.08.2017 23:00:00 26,8 18,8 9 5 N 1014,9 -
12.08.2017 22:00:00 26,9 19,5 15 8 N 1014,7 -
12.08.2017 21:00:00 26,9 19,7 13 7 NE 1014,2 -
12.08.2017 20:00:00 28,0 19,5 11 6 NNE 1013,7 0,0
12.08.2017 19:00:00 28,5 18,8 11 6 ENE 1013,6 -
12.08.2017 18:00:00 28,6 19,2 13 7 E 1013,9 -
12.08.2017 17:00:00 29,5 18,9 13 7 ENE 1014,2 -
12.08.2017 16:00:00 29,8 20,0 9 5 ENE 1014,3 -
12.08.2017 15:00:00 29,3 20,4 13 7 ENE 1014,4 -
12.08.2017 14:00:00 28,9 20,0 16 9 ENE 1014,4 0,0
12.08.2017 13:00:00 28,8 20,5 11 6 ENE 1014,5 -
12.08.2017 12:00:00 28,8 20,5 9 5 E 1014,8 -
12.08.2017 11:00:00 29,1 20,8 9 5 E 1015,0 -
12.08.2017 10:00:00 28,9 21,9 8 4 E 1014,5 -
12.08.2017 09:00:00 27,4 22,5 4 2 SSE 1013,8 -
12.08.2017 08:00:00 25,8 21,4 2 1 W 1013,7 0,0
12.08.2017 07:00:00 25,3 21,1 2 1 S 1013,6 -
12.08.2017 06:00:00 25,1 20,5 4 2 WNW 1014,1 -
12.08.2017 05:00:00 26,8 21,9 5 3 NNE 1013,4 -
12.08.2017 04:00:00 26,9 22,0 11 6 NNE 1013,3 -
12.08.2017 03:00:00 27,0 22,1 11 6 NNE 1013,8 -
12.08.2017 02:00:00 27,1 22,4 13 7 N 1014,2 0,0
12.08.2017 01:00:00 27,1 22,2 15 8 N 1014,5 -
12.08.2017 00:00:00 27,7 22,4 11 6 N 1014,6 -
11.08.2017 23:00:00 27,7 22,8 16 9 N 1014,9 -
11.08.2017 22:00:00 27,9 22,8 21 11 N 1014,7 -
11.08.2017 21:00:00 28,4 23,3 16 9 N 1014,3 -
11.08.2017 20:00:00 28,9 23,3 16 9 N 1014,1 0,0
11.08.2017 19:00:00 30,1 23,5 18 10 N 1013,8 -
11.08.2017 18:00:00 30,8 23,9 15 8 NNE 1013,8 -
11.08.2017 17:00:00 31,8 24,1 16 9 NNE 1013,8 -
11.08.2017 16:00:00 - - - - - - -
11.08.2017 15:00:00 32,4 24,7 13 7 NNE 1013,7 -
11.08.2017 14:00:00 32,3 24,6 15 8 NE 1013,8 0,0
11.08.2017 13:00:00 32,2 24,2 16 9 NNE 1013,9 -
11.08.2017 12:00:00 31,9 24,2 13 7 NE 1013,5 -
11.08.2017 11:00:00 31,6 22,9 16 9 NNE 1013,4 -
11.08.2017 10:00:00 30,9 24,0 15 8 NNE 1012,9 -
11.08.2017 09:00:00 29,9 24,3 13 7 N 1012,9 -

tt = temperature
td = dewpoint
ff = wind speed
dd = wind direction
ppp = reduced air pressure
rr = precipitation

Next stations